Map

Track Data

SID SEASON NUMBER BASIN SUBBASIN NAME ISO_TIME NATURE LAT LON WMO_WIND WMO_PRES WMO_AGENCY TRACK_TYPE DIST2LAND LANDFALL IFLAG USA_AGENCY USA_ATCF_ID USA_LAT USA_LON USA_RECORD USA_STATUS USA_WIND USA_PRES USA_SSHS USA_R34_NE USA_R34_SE USA_R34_SW USA_R34_NW USA_R50_NE USA_R50_SE USA_R50_SW USA_R50_NW USA_R64_NE USA_R64_SE USA_R64_SW USA_R64_NW USA_POCI USA_ROCI USA_RMW USA_EYE TOKYO_LAT TOKYO_LON TOKYO_GRADE TOKYO_WIND TOKYO_PRES TOKYO_R50_DIR TOKYO_R50_LONG TOKYO_R50_SHORT TOKYO_R30_DIR TOKYO_R30_LONG TOKYO_R30_SHORT TOKYO_LAND CMA_LAT CMA_LON CMA_CAT CMA_WIND CMA_PRES HKO_LAT HKO_LON HKO_CAT HKO_WIND HKO_PRES NEWDELHI_LAT NEWDELHI_LON NEWDELHI_GRADE NEWDELHI_WIND NEWDELHI_PRES NEWDELHI_CI NEWDELHI_DP NEWDELHI_POCI REUNION_LAT REUNION_LON REUNION_TYPE REUNION_WIND REUNION_PRES REUNION_TNUM REUNION_CI REUNION_RMW REUNION_R34_NE REUNION_R34_SE REUNION_R34_SW REUNION_R34_NW REUNION_R50_NE REUNION_R50_SE REUNION_R50_SW REUNION_R50_NW REUNION_R64_NE REUNION_R64_SE REUNION_R64_SW REUNION_R64_NW BOM_LAT BOM_LON BOM_TYPE BOM_WIND BOM_PRES BOM_TNUM BOM_CI BOM_RMW BOM_R34_NE BOM_R34_SE BOM_R34_SW BOM_R34_NW BOM_R50_NE BOM_R50_SE BOM_R50_SW BOM_R50_NW BOM_R64_NE BOM_R64_SE BOM_R64_SW BOM_R64_NW BOM_ROCI BOM_POCI BOM_EYE BOM_POS_METHOD BOM_PRES_METHOD NADI_LAT NADI_LON NADI_CAT NADI_WIND NADI_PRES WELLINGTON_LAT WELLINGTON_LON WELLINGTON_WIND WELLINGTON_PRES DS824_LAT DS824_LON DS824_STAGE DS824_WIND DS824_PRES TD9636_LAT TD9636_LON TD9636_STAGE TD9636_WIND TD9636_PRES TD9635_LAT TD9635_LON TD9635_WIND TD9635_PRES TD9635_ROCI NEUMANN_LAT NEUMANN_LON NEUMANN_CLASS NEUMANN_WIND NEUMANN_PRES MLC_LAT MLC_LON MLC_CLASS MLC_WIND MLC_PRES USA_GUST BOM_GUST BOM_GUST_PER REUNION_GUST REUNION_GUST_PER USA_SEAHGT USA_SEARAD_NE USA_SEARAD_SE USA_SEARAD_SW USA_SEARAD_NW STORM_SPEED STORM_DIR
1944336S04070 1945 83 SI MM NOT_NAMED 1944-12-01 06:00:00 NR -4.00000 69.9000 reunion main 1585 1585 _____O____O___ -1 -3.80000 70.0000 99 9.90000 -4.20000 69.8000 7 3 207
1944336S04070 1945 83 SI MM NOT_NAMED 1944-12-01 09:00:00 NR -4.14107 69.8302 main 1600 1600 _____P____P___ -1 -3.76960 70.0102 99 -4.51254 69.6501 7 3 206
1944336S04070 1945 83 SI MM NOT_NAMED 1944-12-01 12:00:00 NR -4.28846 69.7586 main 1619 1619 _____P____P___ -1 -3.74686 70.0171 99 -4.83006 69.5001 7 3 205
1944336S04070 1945 83 SI MM NOT_NAMED 1944-12-01 15:00:00 NR -4.44848 69.6837 main 1635 1635 _____P____P___ -1 -3.73943 70.0173 99 -5.15754 69.3501 7 4 204
1944336S04070 1945 83 SI MM NOT_NAMED 1944-12-01 18:00:00 NR -4.62749 69.6037 main 1660 1660 _____P____O___ -1 -3.75497 70.0074 99 -5.50000 69.2000 7 4 203
1944336S04070 1945 83 SI MM NOT_NAMED 1944-12-01 21:00:00 NR -4.83086 69.5162 main 1685 1685 _____P____P___ -1 -3.80114 69.9841 99 -5.86058 69.0483 7 5 203
1944336S04070 1945 83 SI MM NOT_NAMED 1944-12-02 00:00:00 NR -5.06026 69.4156 main 1719 1719 _____P____P___ -1 -3.88559 69.9440 99 -6.23493 68.8873 7 5 205
1944336S04070 1945 83 SI MM NOT_NAMED 1944-12-02 03:00:00 NR -5.31640 69.2957 main 1744 1744 _____P____P___ -1 -4.01599 69.8838 99 -6.61681 68.7076 7 6 206
1944336S04070 1945 83 SI MM NOT_NAMED 1944-12-02 06:00:00 NR -5.60000 69.1500 reunion main 1779 1779 _____O____O___ -1 -4.20000 69.8000 99 9.90000 -7.00000 68.5000 7 7 208
1944336S04070 1945 83 SI MM NOT_NAMED 1944-12-02 09:00:00 NR -5.91679 68.9701 main 1819 1819 _____P____P___ -1 -4.44231 69.6904 99 -7.39127 68.2498 7 8 210
1944336S04070 1945 83 SI MM NOT_NAMED 1944-12-02 12:00:00 NR -6.25788 68.7646 main 1869 1869 _____P____P___ -1 -4.73572 69.5565 99 -7.78004 67.9726 7 8 211
1944336S04070 1945 83 SI MM NOT_NAMED 1944-12-02 15:00:00 NR -6.61193 68.5427 main 1908 1868 _____P____P___ -1 -5.07007 69.4013 99 -8.15378 67.6841 7 8 212
1944336S04070 1945 83 SI MM NOT_NAMED 1944-12-02 18:00:00 NR -6.96760 68.3137 main 1859 1819 _____P____O___ -1 -5.43519 69.2274 99 -8.50000 67.4000 7 8 213
1944336S04070 1945 83 SI MM NOT_NAMED 1944-12-02 21:00:00 NR -7.31230 68.0860 main 1819 1779 _____P____P___ -1 -5.82090 69.0375 99 -8.80370 67.1345 7 8 214
1944336S04070 1945 83 SI MM NOT_NAMED 1944-12-03 00:00:00 NR -7.64849 67.8559 main 1779 1723 _____P____P___ -1 -6.21704 68.8345 99 -9.07994 66.8773 7 8 215
1944336S04070 1945 83 SI MM NOT_NAMED 1944-12-03 03:00:00 NR -7.97733 67.6262 main 1723 1683 _____P____P___ -1 -6.61345 68.6211 99 -9.34121 66.6314 7 8 215
1944336S04070 1945 83 SI MM NOT_NAMED 1944-12-03 06:00:00 NR -8.30000 67.4000 reunion main 1683 1643 _____O____O___ -1 -7.00000 68.4000 99 9.90000 -9.60000 66.4000 7 8 214
1944336S04070 1945 83 SI MM NOT_NAMED 1944-12-03 09:00:00 NR -8.60240 67.1935 main 1643 1603 _____P____P___ -1 -7.33806 68.1894 99 -9.86674 66.1975 7 7 214
1944336S04070 1945 83 SI MM NOT_NAMED 1944-12-03 12:00:00 NR -8.90360 66.9879 main 1603 1563 _____P____P___ -1 -7.67239 67.9688 99 -10.1348 66.0071 7 7 214
1944336S04070 1945 83 SI MM NOT_NAMED 1944-12-03 15:00:00 NR -9.20673 66.7762 main 1563 1523 _____P____P___ -1 -8.00298 67.7393 99 -10.4105 65.8131 7 8 215
1944336S04070 1945 83 SI MM NOT_NAMED 1944-12-03 18:00:00 NR -9.51492 66.5510 main 1523 1476 _____P____O___ -1 -8.32983 67.5020 99 -10.7000 65.6000 7 8 217
1944336S04070 1945 83 SI MM NOT_NAMED 1944-12-03 21:00:00 NR -9.83033 66.3072 main 1476 1452 _____P____P___ -1 -8.65296 67.2583 99 -11.0077 65.3561 7 6 218
1944336S04070 1945 83 SI MM NOT_NAMED 1944-12-04 00:00:00 NR -9.98292 66.1849 main 1452 1436 _____P____P___ -1 -8.97236 67.0092 99 -11.3303 65.0858 7 3 219
1944336S04070 1945 83 SI MM NOT_NAMED 1944-12-04 03:00:00 NR -10.0796 66.1032 main 1436 1436 _____P____P___ -1 -9.28804 66.7561 99 -11.6628 64.7975 7 1 219
1944336S04070 1945 83 SI MM NOT_NAMED 1944-12-04 06:00:00 NR -10.0800 66.1000 reunion main 1436 1436 _____O____O___ -1 -9.60000 66.5000 99 9.90000 -12.0000 64.5000 7 2 40
1944336S04070 1945 83 SI MM NOT_NAMED 1944-12-04 09:00:00 NR -9.93423 66.2261 main 1461 1421 _____P________ -1 -9.93423 66.2261 99 7 2 219
1944336S04070 1945 83 SI MM NOT_NAMED 1944-12-04 12:00:00 NR -10.2673 65.9455 main 1405 1365 _____P________ -1 -10.2673 65.9455 99 7 9 220
1944336S04070 1945 83 SI MM NOT_NAMED 1944-12-04 15:00:00 NR -10.5950 65.6630 main 1365 1318 _____P________ -1 -10.5950 65.6630 99 7 9 221
1944336S04070 1945 83 SI MM NOT_NAMED 1944-12-04 18:00:00 NR -10.9128 65.3837 main 1318 1272 _____P________ -1 -10.9128 65.3837 99 8 221
1944336S04070 1945 83 SI MM NOT_NAMED 1944-12-04 21:00:00 NR -11.2165 65.1127 main 1272 1232 _____P________ -1 -11.2165 65.1127 99 8 221
1944336S04070 1945 83 SI MM NOT_NAMED 1944-12-05 00:00:00 NR -11.5018 64.8549 main 1232 1185 _____P________ -1 -11.5018 64.8549 99 7 222
1944336S04070 1945 83 SI MM NOT_NAMED 1944-12-05 03:00:00 NR -11.7644 64.6157 main 1185 1154 _____P________ -1 -11.7644 64.6157 99 7 222
1944336S04070 1945 83 SI MM NOT_NAMED 1944-12-05 06:00:00 NR -12.0000 64.4000 reunion main 1154 1123 _____O________ -1 -12.0000 64.4000 99 9.90000 6 222
1944336S04070 1945 83 SI MM NOT_NAMED 1944-12-05 09:00:00 NR -12.2057 64.2117 main 1123 1099 _____P________ -1 -12.2057 64.2117 99 5 222
1944336S04070 1945 83 SI MM NOT_NAMED 1944-12-05 12:00:00 NR -12.3841 64.0487 main 1092 1077 _____P________ -1 -12.3841 64.0487 99 4 222
1944336S04070 1945 83 SI MM NOT_NAMED 1944-12-05 15:00:00 NR -12.5390 63.9073 main 1077 1052 _____P________ -1 -12.5390 63.9073 99 4 222
1944336S04070 1945 83 SI MM NOT_NAMED 1944-12-05 18:00:00 NR -12.6746 63.7841 main 1052 1037 _____P________ -1 -12.6746 63.7841 99 3 222
1944336S04070 1945 83 SI MM NOT_NAMED 1944-12-05 21:00:00 NR -12.7945 63.6754 main 1037 1022 _____P________ -1 -12.7945 63.6754 99 3 221
1944336S04070 1945 83 SI MM NOT_NAMED 1944-12-06 00:00:00 NR -12.9028 63.5776 main 1022 1006 _____P________ -1 -12.9028 63.5776 99 3 222
1944336S04070 1945 83 SI MM NOT_NAMED 1944-12-06 03:00:00 NR -13.0034 63.4870 main 1006 991 _____P________ -1 -13.0034 63.4870 99 3 221
1944336S04070 1945 83 SI MM NOT_NAMED 1944-12-06 06:00:00 NR -13.1000 63.4000 reunion main 991 _____O________ -1 -13.1000 63.4000 99 9.90000 3 223

About IBTrACS Database

This database is a web-friendly format of International Best Track Archive for Climate Stewardship (IBTrACS), a global best track data archive curated by NOAA dating back to 1842.

Updated: 2021-11-26